Check out our new PWSWeather beta!
PWSweather.com
Personal Weather Stations
Station Observations

SkegnessGB

Lat: 53.147585, Lon: 0.345774

Elevation: 18

Station Type: Fine Offset WH3080

http://www.skegnessweather.info/

High Low Average
Temperature 50.5°F10.3°C 31.1°F-0.5°C 42.5°F5.8°C
Dew Point 45.5°F7.5°C 25.5°F-3.6°C 37.5°F3.1°C
Winds 30.2 mph 48.6 kmh 0.3 mph 0.5 kmh 17.0 mph S27.4 kmh S
Wind Gusts 38.4 mph61.8 kmh 1.7 mph2.7 kmh 18.0 mph29.0 kmh
Humidity 90% 76% 82%
Pressure 30.16 in1021.3 mb 29.39 in995.3 mb -
Precipitation 0.11 in2.8 mm - -
Hour Temp Dew Point Humidity Winds Wind Gusts Pressure Precip Precip Rate Daily Precip Total
12:00 AM 32.2°F0.1°C 26.4°F-3.1°C 79% 1.5 mph SW2.4 kmh SW 3.4 mph5.5 kmh 30.16 in1021.3 mb 0.00 in0.0 mm 0.00 in0.0 mm 0.00 in0.0 mm
12:10 AM 32.0°F0.0°C 26.2°F-3.2°C 79% 1.6 mph SSW2.6 kmh SSW 3.4 mph5.5 kmh 30.16 in1021.3 mb 0.00 in0.0 mm 0.00 in0.0 mm 0.00 in0.0 mm
12:20 AM 31.5°F-0.3°C 25.7°F-3.5°C 79% 0.8 mph SSE1.3 kmh SSE 1.7 mph2.7 kmh 30.16 in1021.3 mb 0.00 in0.0 mm 0.00 in0.0 mm 0.00 in0.0 mm
12:30 AM 31.3°F-0.4°C 25.5°F-3.6°C 79% 1.2 mph SSW1.9 kmh SSW 2.5 mph4.0 kmh 30.15 in1021.0 mb 0.00 in0.0 mm 0.00 in0.0 mm 0.00 in0.0 mm
12:40 AM 31.3°F-0.4°C 25.5°F-3.6°C 79% 0.5 mph S0.8 kmh S 2.5 mph4.0 kmh 30.15 in1021.0 mb 0.00 in0.0 mm 0.00 in0.0 mm 0.00 in0.0 mm
12:50 AM 31.1°F-0.5°C 25.7°F-3.5°C 80% 0.3 mph SW0.5 kmh SW 1.7 mph2.7 kmh 30.15 in1021.0 mb 0.00 in0.0 mm 0.00 in0.0 mm 0.00 in0.0 mm
01:00 AM 31.1°F-0.5°C 25.7°F-3.5°C 80% 1.0 mph SW1.6 kmh SW 1.7 mph2.7 kmh 30.15 in1021.0 mb 0.00 in0.0 mm 0.00 in0.0 mm 0.00 in0.0 mm
01:10 AM 31.3°F-0.4°C 25.8°F-3.4°C 80% 1.4 mph S2.3 kmh S 3.4 mph5.5 kmh 30.14 in1020.7 mb 0.00 in0.0 mm 0.00 in0.0 mm 0.00 in0.0 mm
01:20 AM 31.6°F-0.2°C 26.2°F-3.2°C 80% 3.7 mph SW6.0 kmh SW 4.9 mph7.9 kmh 30.14 in1020.7 mb 0.00 in0.0 mm 0.00 in0.0 mm 0.00 in0.0 mm
01:30 AM 31.8°F-0.1°C 26.4°F-3.1°C 80% 4.8 mph S7.7 kmh S 4.9 mph7.9 kmh 30.14 in1020.7 mb 0.00 in0.0 mm 0.00 in0.0 mm 0.00 in0.0 mm
01:40 AM 32.0°F0.0°C 26.8°F-2.9°C 81% 3.4 mph SW5.5 kmh SW 4.2 mph6.8 kmh 30.14 in1020.7 mb 0.00 in0.0 mm 0.00 in0.0 mm 0.00 in0.0 mm
01:50 AM 32.0°F0.0°C 26.8°F-2.9°C 81% 3.1 mph SW5.0 kmh SW 3.4 mph5.5 kmh 30.14 in1020.7 mb 0.00 in0.0 mm 0.00 in0.0 mm 0.00 in0.0 mm
02:00 AM 32.0°F0.0°C 26.8°F-2.9°C 81% 2.6 mph SSW4.2 kmh SSW 4.9 mph7.9 kmh 30.14 in1020.7 mb 0.00 in0.0 mm 0.00 in0.0 mm 0.00 in0.0 mm
02:10 AM 32.0°F0.0°C 26.8°F-2.9°C 81% 3.2 mph SW5.1 kmh SW 4.9 mph7.9 kmh 30.13 in1020.3 mb 0.00 in0.0 mm 0.00 in0.0 mm 0.00 in0.0 mm
02:20 AM 32.4°F0.2°C 27.5°F-2.5°C 82% 4.0 mph S6.4 kmh S 4.2 mph6.8 kmh 30.13 in1020.3 mb 0.00 in0.0 mm 0.00 in0.0 mm 0.00 in0.0 mm
02:30 AM 32.7°F0.4°C 27.8°F-2.3°C 82% 4.4 mph SE7.1 kmh SE 5.9 mph9.5 kmh 30.12 in1020.0 mb 0.00 in0.0 mm 0.00 in0.0 mm 0.00 in0.0 mm
02:40 AM 32.9°F0.5°C 28.0°F-2.2°C 82% 4.1 mph S6.6 kmh S 4.9 mph7.9 kmh 30.12 in1020.0 mb 0.00 in0.0 mm 0.00 in0.0 mm 0.00 in0.0 mm
02:50 AM 33.6°F0.9°C 28.7°F-1.8°C 82% 5.0 mph S8.0 kmh S 6.6 mph10.6 kmh 30.11 in1019.6 mb 0.00 in0.0 mm 0.00 in0.0 mm 0.00 in0.0 mm
03:00 AM 34.5°F1.4°C 29.9°F-1.2°C 83% 7.9 mph S12.7 kmh S 10.1 mph16.3 kmh 30.11 in1019.6 mb 0.00 in0.0 mm 0.00 in0.0 mm 0.00 in0.0 mm
03:10 AM 34.7°F1.5°C 30.1°F-1.1°C 83% 6.6 mph SE10.6 kmh SE 6.6 mph10.6 kmh 30.10 in1019.3 mb 0.00 in0.0 mm 0.00 in0.0 mm 0.00 in0.0 mm
03:20 AM 34.9°F1.6°C 30.5°F-0.8°C 84% 6.4 mph S10.3 kmh S 5.9 mph9.5 kmh 30.09 in1019.0 mb 0.00 in0.0 mm 0.00 in0.0 mm 0.00 in0.0 mm
03:30 AM 35.1°F1.7°C 30.7°F-0.7°C 84% 7.8 mph S12.6 kmh S 7.6 mph12.2 kmh 30.09 in1019.0 mb 0.00 in0.0 mm 0.00 in0.0 mm 0.00 in0.0 mm
03:40 AM 35.2°F1.8°C 30.9°F-0.6°C 84% 7.3 mph S11.7 kmh S 7.6 mph12.2 kmh 30.09 in1019.0 mb 0.00 in0.0 mm 0.00 in0.0 mm 0.00 in0.0 mm
03:50 AM 35.1°F1.7°C 30.7°F-0.7°C 84% 8.4 mph SSW13.5 kmh SSW 7.6 mph12.2 kmh 30.08 in1018.6 mb 0.00 in0.0 mm 0.00 in0.0 mm 0.00 in0.0 mm
04:00 AM 35.8°F2.1°C 31.7°F-0.2°C 85% 8.6 mph S13.8 kmh S 10.1 mph16.3 kmh 30.08 in1018.6 mb 0.00 in0.0 mm 0.00 in0.0 mm 0.00 in0.0 mm
04:10 AM 36.3°F2.4°C 32.2°F0.1°C 85% 8.8 mph S14.2 kmh S 8.4 mph13.5 kmh 30.08 in1018.6 mb 0.00 in0.0 mm 0.00 in0.0 mm 0.00 in0.0 mm
04:20 AM 36.7°F2.6°C 32.6°F0.3°C 85% 8.6 mph SSE13.8 kmh SSE 8.4 mph13.5 kmh 30.07 in1018.3 mb 0.00 in0.0 mm 0.00 in0.0 mm 0.00 in0.0 mm
04:30 AM 37.0°F2.8°C 32.9°F0.5°C 85% 11.8 mph SSE19.0 kmh SSE 11.8 mph19.0 kmh 30.07 in1018.3 mb 0.00 in0.0 mm 0.00 in0.0 mm 0.00 in0.0 mm
04:40 AM 37.4°F3.0°C 33.3°F0.7°C 85% 11.7 mph SSE18.8 kmh SSE 11.8 mph19.0 kmh 30.06 in1017.9 mb 0.00 in0.0 mm 0.00 in0.0 mm 0.00 in0.0 mm
04:50 AM 37.6°F3.1°C 33.8°F1.0°C 86% 12.2 mph S19.6 kmh S 11.8 mph19.0 kmh 30.06 in1017.9 mb 0.00 in0.0 mm 0.00 in0.0 mm 0.00 in0.0 mm
05:00 AM 37.8°F3.2°C 33.7°F0.9°C 85% 12.7 mph S20.4 kmh S 12.5 mph20.1 kmh 30.04 in1017.3 mb 0.00 in0.0 mm 0.00 in0.0 mm 0.00 in0.0 mm
05:10 AM 37.9°F3.3°C 33.8°F1.0°C 85% 10.8 mph SE17.4 kmh SE 10.8 mph17.4 kmh 30.04 in1017.3 mb 0.00 in0.0 mm 0.00 in0.0 mm 0.00 in0.0 mm
05:20 AM 38.5°F3.6°C 34.4°F1.3°C 85% 11.6 mph S18.7 kmh S 13.3 mph21.4 kmh 30.03 in1016.9 mb 0.00 in0.0 mm 0.00 in0.0 mm 0.00 in0.0 mm
05:30 AM 38.8°F3.8°C 34.7°F1.5°C 85% 14.3 mph S23.0 kmh S 14.3 mph23.0 kmh 30.03 in1016.9 mb 0.00 in0.0 mm 0.00 in0.0 mm 0.00 in0.0 mm
05:40 AM 38.8°F3.8°C 34.4°F1.3°C 84% 14.0 mph SE22.5 kmh SE 16.7 mph26.9 kmh 30.02 in1016.6 mb 0.00 in0.0 mm 0.00 in0.0 mm 0.00 in0.0 mm
05:50 AM 38.8°F3.8°C 34.1°F1.2°C 83% 15.3 mph S24.6 kmh S 13.3 mph21.4 kmh 30.02 in1016.6 mb 0.00 in0.0 mm 0.00 in0.0 mm 0.00 in0.0 mm
06:00 AM 39.0°F3.9°C 34.0°F1.1°C 82% 16.9 mph SSW27.2 kmh SSW 16.7 mph26.9 kmh 30.01 in1016.3 mb 0.00 in0.0 mm 0.00 in0.0 mm 0.00 in0.0 mm
06:10 AM 39.0°F3.9°C 34.0°F1.1°C 82% 15.4 mph SSE24.8 kmh SSE 16.0 mph25.7 kmh 30.00 in1015.9 mb 0.00 in0.0 mm 0.00 in0.0 mm 0.00 in0.0 mm
06:20 AM 39.2°F4.0°C 33.9°F1.1°C 81% 18.5 mph SSE29.8 kmh SSE 18.5 mph29.8 kmh 29.99 in1015.6 mb 0.00 in0.0 mm 0.00 in0.0 mm 0.00 in0.0 mm
06:30 AM 39.2°F4.0°C 33.9°F1.1°C 81% 15.8 mph S25.4 kmh S 16.0 mph25.7 kmh 30.00 in1015.9 mb 0.00 in0.0 mm 0.00 in0.0 mm 0.00 in0.0 mm
06:40 AM 39.0°F3.9°C 33.4°F0.8°C 80% 15.2 mph S24.5 kmh S 16.7 mph26.9 kmh 29.99 in1015.6 mb 0.00 in0.0 mm 0.00 in0.0 mm 0.00 in0.0 mm
06:50 AM 39.2°F4.0°C 33.5°F0.8°C 80% 16.8 mph SSW27.0 kmh SSW 15.0 mph24.1 kmh 29.98 in1015.2 mb 0.00 in0.0 mm 0.00 in0.0 mm 0.00 in0.0 mm
07:00 AM 39.6°F4.2°C 33.9°F1.1°C 80% 17.6 mph S28.3 kmh S 20.2 mph32.5 kmh 29.97 in1014.9 mb 0.00 in0.0 mm 0.00 in0.0 mm 0.00 in0.0 mm
07:10 AM 39.7°F4.3°C 34.1°F1.2°C 80% 19.8 mph S31.9 kmh S 16.0 mph25.7 kmh 29.97 in1014.9 mb 0.00 in0.0 mm 0.00 in0.0 mm 0.00 in0.0 mm
07:20 AM 39.9°F4.4°C 34.6°F1.4°C 81% 14.6 mph S23.5 kmh S 17.5 mph28.2 kmh 29.96 in1014.6 mb 0.00 in0.0 mm 0.00 in0.0 mm 0.00 in0.0 mm
07:30 AM 40.5°F4.7°C 35.1°F1.7°C 81% 19.4 mph SSE31.2 kmh SSE 23.4 mph37.7 kmh 29.96 in1014.6 mb 0.00 in0.0 mm 0.00 in0.0 mm 0.00 in0.0 mm
07:40 AM 40.5°F4.7°C 34.8°F1.6°C 80% 20.7 mph S33.3 kmh S 19.2 mph30.9 kmh 29.95 in1014.2 mb 0.00 in0.0 mm 0.00 in0.0 mm 0.00 in0.0 mm
07:50 AM 40.3°F4.6°C 34.3°F1.3°C 79% 19.4 mph S31.2 kmh S 20.2 mph32.5 kmh 29.93 in1013.5 mb 0.00 in0.0 mm 0.00 in0.0 mm 0.00 in0.0 mm
08:00 AM 40.3°F4.6°C 34.6°F1.4°C 80% 21.4 mph S34.4 kmh S 22.6 mph36.4 kmh 29.92 in1013.2 mb 0.00 in0.0 mm 0.00 in0.0 mm 0.00 in0.0 mm
08:10 AM 40.8°F4.9°C 35.1°F1.7°C 80% 23.0 mph S37.0 kmh S 20.2 mph32.5 kmh 29.92 in1013.2 mb 0.00 in0.0 mm 0.00 in0.0 mm 0.00 in0.0 mm
08:20 AM 41.2°F5.1°C 35.5°F1.9°C 80% 23.8 mph S38.3 kmh S 20.2 mph32.5 kmh 29.91 in1012.9 mb 0.00 in0.0 mm 0.00 in0.0 mm 0.00 in0.0 mm
08:30 AM 41.4°F5.2°C 35.7°F2.1°C 80% 23.7 mph SSE38.1 kmh SSE 24.4 mph39.3 kmh 29.90 in1012.5 mb 0.00 in0.0 mm 0.00 in0.0 mm 0.00 in0.0 mm
08:40 AM 41.4°F5.2°C 35.7°F2.1°C 80% 24.3 mph S39.1 kmh S 24.4 mph39.3 kmh 29.89 in1012.2 mb 0.00 in0.0 mm 0.00 in0.0 mm 0.00 in0.0 mm
08:50 AM 41.4°F5.2°C 35.7°F2.1°C 80% 21.3 mph S34.3 kmh S 25.1 mph40.4 kmh 29.90 in1012.5 mb 0.00 in0.0 mm 0.00 in0.0 mm 0.00 in0.0 mm
09:00 AM 41.4°F5.2°C 35.7°F2.1°C 80% 28.7 mph S46.2 kmh S 25.8 mph41.5 kmh 29.89 in1012.2 mb 0.00 in0.0 mm 0.00 in0.0 mm 0.00 in0.0 mm
09:10 AM 41.4°F5.2°C 36.0°F2.2°C 81% 20.6 mph S33.2 kmh S 18.5 mph29.8 kmh 29.89 in1012.2 mb 0.00 in0.0 mm 0.00 in0.0 mm 0.00 in0.0 mm
09:20 AM 41.4°F5.2°C 36.0°F2.2°C 81% 25.8 mph SSE41.5 kmh SSE 22.6 mph36.4 kmh 29.88 in1011.9 mb 0.00 in0.0 mm 0.00 in0.0 mm 0.00 in0.0 mm
09:30 AM 41.7°F5.4°C 36.6°F2.6°C 82% 22.6 mph S36.4 kmh S 26.8 mph43.1 kmh 29.87 in1011.5 mb 0.00 in0.0 mm 0.00 in0.0 mm 0.00 in0.0 mm
09:40 AM 42.3°F5.7°C 37.2°F2.9°C 82% 23.2 mph S37.3 kmh S 26.8 mph43.1 kmh 29.86 in1011.2 mb 0.00 in0.0 mm 0.00 in0.0 mm 0.00 in0.0 mm
09:50 AM 42.1°F5.6°C 37.0°F2.8°C 82% 23.4 mph S37.7 kmh S 24.4 mph39.3 kmh 29.86 in1011.2 mb 0.00 in0.0 mm 0.00 in0.0 mm 0.00 in0.0 mm
10:00 AM 42.1°F5.6°C 37.3°F2.9°C 83% 22.3 mph SE35.9 kmh SE 22.6 mph36.4 kmh 29.84 in1010.5 mb 0.01 in0.3 mm 0.01 in0.3 mm 0.01 in0.3 mm
10:10 AM 42.3°F5.7°C 38.1°F3.4°C 85% 24.2 mph SSE38.9 kmh SSE 23.4 mph37.7 kmh 29.83 in1010.2 mb 0.01 in0.3 mm 0.00 in0.0 mm 0.01 in0.3 mm
10:20 AM 42.8°F6.0°C 38.6°F3.7°C 85% 24.7 mph S39.8 kmh S 25.8 mph41.5 kmh 29.81 in1009.5 mb 0.01 in0.3 mm 0.00 in0.0 mm 0.01 in0.3 mm
10:30 AM 43.2°F6.2°C 39.0°F3.9°C 85% 28.9 mph SE46.5 kmh SE 25.8 mph41.5 kmh 29.81 in1009.5 mb 0.01 in0.3 mm 0.00 in0.0 mm 0.01 in0.3 mm
10:40 AM 43.2°F6.2°C 39.0°F3.9°C 85% 26.8 mph S43.1 kmh S 26.8 mph43.1 kmh 29.79 in1008.8 mb 0.01 in0.3 mm 0.00 in0.0 mm 0.01 in0.3 mm
10:50 AM 43.3°F6.3°C 39.1°F3.9°C 85% 25.5 mph S41.0 kmh S 26.8 mph43.1 kmh 29.78 in1008.5 mb 0.01 in0.3 mm 0.00 in0.0 mm 0.01 in0.3 mm
11:00 AM 43.7°F6.5°C 39.5°F4.2°C 85% 26.4 mph S42.5 kmh S 26.8 mph43.1 kmh 29.77 in1008.1 mb 0.00 in0.0 mm 0.00 in0.0 mm 0.01 in0.3 mm
11:10 AM 43.9°F6.6°C 39.7°F4.3°C 85% 28.6 mph S46.0 kmh S 26.8 mph43.1 kmh 29.75 in1007.5 mb 0.00 in0.0 mm 0.00 in0.0 mm 0.01 in0.3 mm
11:20 AM 43.9°F6.6°C 40.0°F4.4°C 86% 26.3 mph SSE42.3 kmh SSE 25.1 mph40.4 kmh 29.75 in1007.5 mb 0.00 in0.0 mm 0.00 in0.0 mm 0.01 in0.3 mm
11:30 AM 43.9°F6.6°C 40.0°F4.4°C 86% 29.2 mph SSE47.0 kmh SSE 29.3 mph47.2 kmh 29.74 in1007.1 mb 0.00 in0.0 mm 0.00 in0.0 mm 0.01 in0.3 mm
11:40 AM 43.9°F6.6°C 40.3°F4.6°C 87% 27.2 mph S43.8 kmh S 25.1 mph40.4 kmh 29.73 in1006.8 mb 0.00 in0.0 mm 0.00 in0.0 mm 0.01 in0.3 mm
11:50 AM 44.1°F6.7°C 40.7°F4.8°C 88% 26.3 mph SE42.3 kmh SE 25.8 mph41.5 kmh 29.72 in1006.4 mb 0.01 in0.3 mm 0.06 in1.5 mm 0.02 in0.5 mm
12:00 PM 44.2°F6.8°C 41.2°F5.1°C 89% 28.5 mph SSE45.9 kmh SSE 26.8 mph43.1 kmh 29.72 in1006.4 mb 0.02 in0.5 mm 0.01 in0.3 mm 0.04 in1.0 mm
12:10 PM 44.4°F6.9°C 41.7°F5.4°C 90% 26.4 mph S42.5 kmh S 25.1 mph40.4 kmh 29.72 in1006.4 mb 0.02 in0.5 mm 0.00 in0.0 mm 0.04 in1.0 mm
12:20 PM 44.6°F7.0°C 40.4°F4.7°C 85% 24.1 mph S38.8 kmh S 25.1 mph40.4 kmh 29.70 in1005.8 mb 0.02 in0.5 mm 0.00 in0.0 mm 0.04 in1.0 mm
12:30 PM 45.0°F7.2°C 40.7°F4.8°C 85% 23.6 mph S38.0 kmh S 25.8 mph41.5 kmh 29.69 in1005.4 mb 0.02 in0.5 mm 0.00 in0.0 mm 0.04 in1.0 mm
12:40 PM 45.3°F7.4°C 41.1°F5.1°C 85% 27.0 mph S43.5 kmh S 26.8 mph43.1 kmh 29.68 in1005.1 mb 0.04 in1.0 mm 0.12 in3.0 mm 0.05 in1.3 mm
12:50 PM 45.7°F7.6°C 41.7°F5.4°C 86% 30.2 mph SSE48.6 kmh SSE 25.8 mph41.5 kmh 29.67 in1004.7 mb 0.02 in0.5 mm 0.00 in0.0 mm 0.05 in1.3 mm
01:00 PM 45.9°F7.7°C 41.6°F5.3°C 85% 25.5 mph S41.0 kmh S 21.7 mph34.9 kmh 29.66 in1004.4 mb 0.01 in0.3 mm 0.00 in0.0 mm 0.05 in1.3 mm
01:10 PM 46.0°F7.8°C 41.8°F5.4°C 85% 23.7 mph S38.1 kmh S 20.2 mph32.5 kmh 29.65 in1004.1 mb 0.01 in0.3 mm 0.00 in0.0 mm 0.05 in1.3 mm
01:20 PM 46.4°F8.0°C 41.8°F5.4°C 84% 26.7 mph SSE43.0 kmh SSE 25.8 mph41.5 kmh 29.64 in1003.7 mb 0.01 in0.3 mm 0.00 in0.0 mm 0.05 in1.3 mm
01:30 PM 46.8°F8.2°C 42.2°F5.7°C 84% 24.5 mph S39.4 kmh S 27.6 mph44.4 kmh 29.64 in1003.7 mb 0.01 in0.3 mm 0.00 in0.0 mm 0.05 in1.3 mm
01:40 PM 46.9°F8.3°C 42.0°F5.6°C 83% 24.6 mph SSW39.6 kmh SSW 27.6 mph44.4 kmh 29.63 in1003.4 mb 0.00 in0.0 mm 0.00 in0.0 mm 0.05 in1.3 mm
01:50 PM 47.1°F8.4°C 42.2°F5.7°C 83% 27.9 mph S44.9 kmh S 26.8 mph43.1 kmh 29.61 in1002.7 mb 0.00 in0.0 mm 0.00 in0.0 mm 0.05 in1.3 mm
02:00 PM 47.1°F8.4°C 42.2°F5.7°C 83% 27.2 mph S43.8 kmh S 34.2 mph55.0 kmh 29.60 in1002.4 mb 0.00 in0.0 mm 0.00 in0.0 mm 0.05 in1.3 mm
02:10 PM 47.3°F8.5°C 42.4°F5.8°C 83% 25.7 mph SSW41.4 kmh SSW 34.2 mph55.0 kmh 29.59 in1002.0 mb 0.00 in0.0 mm 0.00 in0.0 mm 0.05 in1.3 mm
02:20 PM 47.5°F8.6°C 42.3°F5.7°C 82% 28.2 mph SSE45.4 kmh SSE 28.5 mph45.9 kmh 29.58 in1001.7 mb 0.00 in0.0 mm 0.00 in0.0 mm 0.05 in1.3 mm
02:30 PM 47.5°F8.6°C 42.3°F5.7°C 82% 27.3 mph S43.9 kmh S 30.0 mph48.3 kmh 29.57 in1001.4 mb 0.00 in0.0 mm 0.00 in0.0 mm 0.05 in1.3 mm
02:40 PM 47.5°F8.6°C 42.3°F5.7°C 82% 27.1 mph S43.6 kmh S 29.3 mph47.2 kmh 29.57 in1001.4 mb 0.00 in0.0 mm 0.00 in0.0 mm 0.05 in1.3 mm
02:50 PM 47.7°F8.7°C 42.4°F5.8°C 82% 28.9 mph S46.5 kmh S 27.6 mph44.4 kmh 29.56 in1001.0 mb 0.00 in0.0 mm 0.00 in0.0 mm 0.05 in1.3 mm
03:00 PM 47.7°F8.7°C 42.1°F5.6°C 81% 28.1 mph SSE45.2 kmh SSE 31.0 mph49.9 kmh 29.55 in1000.7 mb 0.00 in0.0 mm 0.00 in0.0 mm 0.05 in1.3 mm
03:10 PM 47.8°F8.8°C 42.3°F5.7°C 81% 26.7 mph S43.0 kmh S 25.1 mph40.4 kmh 29.54 in1000.3 mb 0.00 in0.0 mm 0.00 in0.0 mm 0.05 in1.3 mm
03:20 PM 47.8°F8.8°C 42.3°F5.7°C 81% 26.5 mph SE42.6 kmh SE 30.0 mph48.3 kmh 29.53 in1000.0 mb 0.00 in0.0 mm 0.00 in0.0 mm 0.05 in1.3 mm
03:30 PM 48.0°F8.9°C 42.5°F5.8°C 81% 26.6 mph SSE42.8 kmh SSE 25.1 mph40.4 kmh 29.52 in999.7 mb 0.00 in0.0 mm 0.00 in0.0 mm 0.05 in1.3 mm
03:40 PM 48.2°F9.0°C 42.6°F5.9°C 81% 28.5 mph S45.9 kmh S 27.6 mph44.4 kmh 29.52 in999.7 mb 0.00 in0.0 mm 0.00 in0.0 mm 0.05 in1.3 mm
03:50 PM 48.2°F9.0°C 42.6°F5.9°C 81% 19.1 mph S30.7 kmh S 18.5 mph29.8 kmh 29.51 in999.3 mb 0.00 in0.0 mm 0.00 in0.0 mm 0.05 in1.3 mm
04:00 PM 48.4°F9.1°C 42.8°F6.0°C 81% 22.6 mph SSW36.4 kmh SSW 26.8 mph43.1 kmh 29.50 in999.0 mb 0.00 in0.0 mm 0.00 in0.0 mm 0.05 in1.3 mm
04:10 PM 48.6°F9.2°C 43.0°F6.1°C 81% 23.0 mph SSW37.0 kmh SSW 23.4 mph37.7 kmh 29.49 in998.6 mb 0.00 in0.0 mm 0.00 in0.0 mm 0.05 in1.3 mm
04:20 PM 48.7°F9.3°C 43.2°F6.2°C 81% 28.6 mph S46.0 kmh S 29.3 mph47.2 kmh 29.48 in998.3 mb 0.00 in0.0 mm 0.00 in0.0 mm 0.05 in1.3 mm
04:30 PM 48.9°F9.4°C 43.3°F6.3°C 81% 26.1 mph SSE42.0 kmh SSE 29.3 mph47.2 kmh 29.47 in998.0 mb 0.00 in0.0 mm 0.00 in0.0 mm 0.05 in1.3 mm
04:40 PM 48.9°F9.4°C 43.3°F6.3°C 81% 23.2 mph SE37.3 kmh SE 25.8 mph41.5 kmh 29.46 in997.6 mb 0.00 in0.0 mm 0.00 in0.0 mm 0.05 in1.3 mm
04:50 PM 49.1°F9.5°C 43.5°F6.4°C 81% 26.5 mph SSW42.6 kmh SSW 25.8 mph41.5 kmh 29.46 in997.6 mb 0.00 in0.0 mm 0.00 in0.0 mm 0.05 in1.3 mm
05:00 PM 49.3°F9.6°C 43.7°F6.5°C 81% 28.0 mph S45.1 kmh S 35.2 mph56.6 kmh 29.44 in997.0 mb 0.00 in0.0 mm 0.00 in0.0 mm 0.05 in1.3 mm
05:10 PM 49.5°F9.7°C 43.9°F6.6°C 81% 28.2 mph SE45.4 kmh SE 29.3 mph47.2 kmh 29.43 in996.6 mb 0.00 in0.0 mm 0.00 in0.0 mm 0.05 in1.3 mm
05:20 PM 49.3°F9.6°C 43.7°F6.5°C 81% 26.9 mph S43.3 kmh S 28.5 mph45.9 kmh 29.43 in996.6 mb 0.00 in0.0 mm 0.00 in0.0 mm 0.05 in1.3 mm
05:30 PM 49.3°F9.6°C 43.7°F6.5°C 81% 26.3 mph S42.3 kmh S 25.8 mph41.5 kmh 29.43 in996.6 mb 0.00 in0.0 mm 0.00 in0.0 mm 0.05 in1.3 mm
05:40 PM 49.6°F9.8°C 44.4°F6.9°C 82% 25.2 mph S40.6 kmh S 33.5 mph53.9 kmh 29.42 in996.3 mb 0.00 in0.0 mm 0.00 in0.0 mm 0.05 in1.3 mm
05:50 PM 49.8°F9.9°C 44.2°F6.8°C 81% 27.3 mph S43.9 kmh S 29.3 mph47.2 kmh 29.44 in997.0 mb 0.00 in0.0 mm 0.00 in0.0 mm 0.05 in1.3 mm
06:00 PM 49.8°F9.9°C 44.2°F6.8°C 81% 24.6 mph SW39.6 kmh SW 25.1 mph40.4 kmh 29.43 in996.6 mb 0.00 in0.0 mm 0.00 in0.0 mm 0.05 in1.3 mm
06:10 PM 49.8°F9.9°C 44.5°F6.9°C 82% 27.7 mph SW44.6 kmh SW 25.1 mph40.4 kmh 29.41 in995.9 mb 0.00 in0.0 mm 0.00 in0.0 mm 0.05 in1.3 mm
06:20 PM 49.8°F9.9°C 44.5°F6.9°C 82% 24.9 mph SSE40.1 kmh SSE 31.0 mph49.9 kmh 29.40 in995.6 mb 0.00 in0.0 mm 0.00 in0.0 mm 0.05 in1.3 mm
06:30 PM 50.0°F10.0°C 44.7°F7.1°C 82% 29.6 mph S47.6 kmh S 30.0 mph48.3 kmh 29.41 in995.9 mb 0.00 in0.0 mm 0.00 in0.0 mm 0.05 in1.3 mm
06:40 PM 50.4°F10.2°C 45.1°F7.3°C 82% 25.5 mph S41.0 kmh S 25.8 mph41.5 kmh 29.40 in995.6 mb 0.00 in0.0 mm 0.00 in0.0 mm 0.05 in1.3 mm
06:50 PM 50.4°F10.2°C 45.1°F7.3°C 82% 26.8 mph S43.1 kmh S 27.6 mph44.4 kmh 29.40 in995.6 mb 0.00 in0.0 mm 0.00 in0.0 mm 0.05 in1.3 mm
07:00 PM 50.5°F10.3°C 45.2°F7.3°C 82% 27.1 mph S43.6 kmh S 38.4 mph61.8 kmh 29.39 in995.3 mb 0.00 in0.0 mm 0.00 in0.0 mm 0.05 in1.3 mm
07:10 PM 50.4°F10.2°C 45.1°F7.3°C 82% 23.4 mph S37.7 kmh S 23.4 mph37.7 kmh 29.40 in995.6 mb 0.00 in0.0 mm 0.00 in0.0 mm 0.05 in1.3 mm
07:20 PM 50.2°F10.1°C 45.2°F7.3°C 83% 23.7 mph S38.1 kmh S 25.1 mph40.4 kmh 29.40 in995.6 mb 0.00 in0.0 mm 0.00 in0.0 mm 0.05 in1.3 mm
07:30 PM 50.0°F10.0°C 45.4°F7.4°C 84% 24.6 mph SSE39.6 kmh SSE 24.4 mph39.3 kmh 29.40 in995.6 mb 0.00 in0.0 mm 0.00 in0.0 mm 0.05 in1.3 mm
07:40 PM 49.8°F9.9°C 45.5°F7.5°C 85% 24.1 mph S38.8 kmh S 22.6 mph36.4 kmh 29.42 in996.3 mb 0.01 in0.3 mm 0.06 in1.5 mm 0.06 in1.5 mm
07:50 PM 49.8°F9.9°C 45.5°F7.5°C 85% 19.1 mph SE30.7 kmh SE 18.5 mph29.8 kmh 29.45 in997.3 mb 0.01 in0.3 mm 0.00 in0.0 mm 0.06 in1.5 mm
08:00 PM 47.8°F8.8°C 43.5°F6.4°C 85% 11.7 mph SSW18.8 kmh SSW 11.8 mph19.0 kmh 29.47 in998.0 mb 0.05 in1.3 mm 0.05 in1.3 mm 0.09 in2.3 mm
08:10 PM 47.1°F8.4°C 42.8°F6.0°C 85% 8.1 mph S13.0 kmh S 10.8 mph17.4 kmh 29.48 in998.3 mb 0.05 in1.3 mm 0.00 in0.0 mm 0.09 in2.3 mm
08:20 PM 46.6°F8.1°C 42.0°F5.6°C 84% 8.3 mph SW13.4 kmh SW 8.4 mph13.5 kmh 29.48 in998.3 mb 0.06 in1.5 mm 0.06 in1.5 mm 0.11 in2.8 mm
08:30 PM 46.6°F8.1°C 42.0°F5.6°C 84% 8.1 mph WSW13.0 kmh WSW 8.4 mph13.5 kmh 29.49 in998.6 mb 0.06 in1.5 mm 0.00 in0.0 mm 0.11 in2.8 mm
08:40 PM 46.4°F8.0°C 41.8°F5.4°C 84% 8.6 mph SW13.8 kmh SW 9.1 mph14.6 kmh 29.50 in999.0 mb 0.05 in1.3 mm 0.00 in0.0 mm 0.11 in2.8 mm
08:50 PM 46.2°F7.9°C 41.3°F5.2°C 83% 6.7 mph WSW10.8 kmh WSW 6.6 mph10.6 kmh 29.50 in999.0 mb 0.05 in1.3 mm 0.00 in0.0 mm 0.11 in2.8 mm
09:00 PM 46.0°F7.8°C 41.2°F5.1°C 83% 7.4 mph SSW11.9 kmh SSW 8.4 mph13.5 kmh 29.52 in999.7 mb 0.01 in0.3 mm 0.00 in0.0 mm 0.11 in2.8 mm
09:10 PM 46.0°F7.8°C 41.2°F5.1°C 83% 10.1 mph SW16.3 kmh SW 7.6 mph12.2 kmh 29.52 in999.7 mb 0.01 in0.3 mm 0.00 in0.0 mm 0.11 in2.8 mm
09:20 PM 46.0°F7.8°C 41.2°F5.1°C 83% 7.9 mph W12.7 kmh W 10.8 mph17.4 kmh 29.53 in1000.0 mb 0.00 in0.0 mm 0.00 in0.0 mm 0.11 in2.8 mm
09:30 PM 46.2°F7.9°C 41.3°F5.2°C 83% 11.8 mph WSW19.0 kmh WSW 20.9 mph33.6 kmh 29.54 in1000.3 mb 0.00 in0.0 mm 0.00 in0.0 mm 0.11 in2.8 mm
09:40 PM 45.7°F7.6°C 40.2°F4.6°C 81% 13.4 mph SW21.6 kmh SW 20.9 mph33.6 kmh 29.55 in1000.7 mb 0.00 in0.0 mm 0.00 in0.0 mm 0.11 in2.8 mm
09:50 PM 45.3°F7.4°C 38.9°F3.8°C 78% 9.4 mph WSW15.1 kmh WSW 10.1 mph16.3 kmh 29.55 in1000.7 mb 0.00 in0.0 mm 0.00 in0.0 mm 0.11 in2.8 mm
10:00 PM 45.0°F7.2°C 37.8°F3.2°C 76% 9.7 mph SW15.6 kmh SW 10.1 mph16.3 kmh 29.56 in1001.0 mb 0.00 in0.0 mm 0.00 in0.0 mm 0.11 in2.8 mm
10:10 PM 44.4°F6.9°C 39.0°F3.9°C 81% 8.5 mph WSW13.7 kmh WSW 10.8 mph17.4 kmh 29.57 in1001.4 mb 0.00 in0.0 mm 0.00 in0.0 mm 0.11 in2.8 mm
10:20 PM 44.1°F6.7°C 38.3°F3.5°C 80% 7.9 mph SW12.7 kmh SW 8.4 mph13.5 kmh 29.58 in1001.7 mb 0.00 in0.0 mm 0.00 in0.0 mm 0.11 in2.8 mm
10:30 PM 43.9°F6.6°C 38.1°F3.4°C 80% 8.2 mph WSW13.2 kmh WSW 10.8 mph17.4 kmh 29.58 in1001.7 mb 0.00 in0.0 mm 0.00 in0.0 mm 0.11 in2.8 mm
10:40 PM 43.5°F6.4°C 37.8°F3.2°C 80% 6.5 mph SW10.5 kmh SW 10.1 mph16.3 kmh 29.58 in1001.7 mb 0.00 in0.0 mm 0.00 in0.0 mm 0.11 in2.8 mm
10:50 PM 43.2°F6.2°C 37.7°F3.2°C 81% 8.4 mph S13.5 kmh S 9.1 mph14.6 kmh 29.59 in1002.0 mb 0.00 in0.0 mm 0.00 in0.0 mm 0.11 in2.8 mm
11:00 PM 43.0°F6.1°C 37.5°F3.1°C 81% 6.0 mph SW9.7 kmh SW 6.6 mph10.6 kmh 29.59 in1002.0 mb 0.00 in0.0 mm 0.00 in0.0 mm 0.11 in2.8 mm
11:10 PM 43.0°F6.1°C 37.5°F3.1°C 81% 7.3 mph SW11.7 kmh SW 8.4 mph13.5 kmh 29.60 in1002.4 mb 0.00 in0.0 mm 0.00 in0.0 mm 0.11 in2.8 mm
11:20 PM 43.2°F6.2°C 37.7°F3.2°C 81% 7.9 mph S12.7 kmh S 8.4 mph13.5 kmh 29.60 in1002.4 mb 0.00 in0.0 mm 0.00 in0.0 mm 0.11 in2.8 mm
11:30 PM 43.2°F6.2°C 37.7°F3.2°C 81% 8.4 mph SW13.5 kmh SW 8.4 mph13.5 kmh 29.60 in1002.4 mb 0.00 in0.0 mm 0.00 in0.0 mm 0.11 in2.8 mm
11:40 PM 43.0°F6.1°C 37.2°F2.9°C 80% 9.7 mph SSW15.6 kmh SSW 10.8 mph17.4 kmh 29.60 in1002.4 mb 0.00 in0.0 mm 0.00 in0.0 mm 0.11 in2.8 mm
11:50 PM 42.6°F5.9°C 36.9°F2.7°C 80% 7.4 mph WSW11.9 kmh WSW 9.1 mph14.6 kmh 29.60 in1002.4 mb 0.00 in0.0 mm 0.00 in0.0 mm 0.11 in2.8 mm